NCAR-RAP Real-Time Weather Data

Output produced by METARs form (26 September 2017  05:23 UTC)
found at http://weather.rap.ucar.edu/surface/
 
Conditions at: KHQZ observed 26 September 2017  04:55 UTC
Temperature: 24.5°C (76°F)
Dewpoint: 18.1°C (65°F) [RH = 68%]
Pressure (altimeter): 29.89 inches Hg (1012.3 mb)
Winds: from the SSE (150 degrees) at 5 MPH (4 knots; 2.1 m/s)
Visibility: 10 or more miles (16+ km)
Ceiling: at least 12,000 feet AGL
Clouds: sky clear below 12,000 feet AGL
Present Weather: automated observation with no human augmentation;
there may or may not be significant weather present at this time
KHQZ 260455Z AUTO 15004KT 10SM CLR 25/18 A2989 RMK AO1 T02450181